Sainte-Anne-De-Bellevue, Canada
Current Conditions -  °F | °C
As of 3:00 PM on Friday 21 Nov 2014 (Local Time) from CYUL Reporting Station
Few Clouds Few Clouds  
Wind Chill:   Ceiling: Unl
Heat Index: 23°   Visibility: 30mi
Dew Point:   Wind: 24mph
Humidity: 43%   Direction: 250°WSW
Pressure: 30.26"   Gusts: NA
Location:  45.48°N, 73.9°W
Report Text: CYUL 212000Z 25021KT 30SM FEW040 M05/M16 A3026 RMK CF1 CF TR SLP249
Loading
Personal Weather Stations






























Interactive Weather Map New forecast layout! Learn more

10-Day Weather Forecast

Advertisements
Track Severe Weather on mobile